createdAt,value
2022-12-22T00:00:57.415Z,5.38
2022-12-22T00:03:31.286Z,4.85
2022-12-22T00:06:00.667Z,5.97
2022-12-22T00:08:30.308Z,5.88
2022-12-22T00:10:58.650Z,17.15
2022-12-22T00:13:26.067Z,8.80
2022-12-22T00:15:53.547Z,6.22
2022-12-22T00:18:21.168Z,5.40
2022-12-22T00:20:50.488Z,5.28
2022-12-22T00:23:18.009Z,6.25
2022-12-22T00:25:45.895Z,5.57
2022-12-22T00:28:15.157Z,6.70
2022-12-22T00:30:45.323Z,7.47
2022-12-22T00:33:14.894Z,9.45
2022-12-22T00:35:42.185Z,8.43
2022-12-22T00:38:21.416Z,7.78
2022-12-22T00:40:50.782Z,7.30
2022-12-22T00:43:18.590Z,6.05
2022-12-22T00:45:45.772Z,5.20
2022-12-22T00:48:25.157Z,5.18
2022-12-22T00:50:52.517Z,5.35
2022-12-22T00:53:20.353Z,6.97
2022-12-22T00:55:50.053Z,5.90
2022-12-22T00:58:20.443Z,6.10
2022-12-22T01:00:47.524Z,5.95
2022-12-22T01:03:19.419Z,6.57
2022-12-22T01:05:47.427Z,6.10
2022-12-22T01:08:14.864Z,6.68
2022-12-22T01:10:44.211Z,9.50
2022-12-22T01:13:16.020Z,9.65
2022-12-22T01:15:43.256Z,9.52
2022-12-22T01:18:10.652Z,8.93
2022-12-22T01:20:40.310Z,7.03
2022-12-22T01:23:11.432Z,3.92
2022-12-22T01:25:40.899Z,4.00
2022-12-22T01:28:17.857Z,3.95
2022-12-22T01:30:47.795Z,3.40
2022-12-22T01:33:15.230Z,3.60
2022-12-22T01:35:44.688Z,3.42
2022-12-22T01:38:14.806Z,3.67
2022-12-22T01:40:41.962Z,4.00
2022-12-22T01:43:21.462Z,3.78
2022-12-22T01:45:53.446Z,4.30
2022-12-22T01:48:27.747Z,4.45
2022-12-22T01:50:55.017Z,4.00
2022-12-22T01:53:27.092Z,4.25
2022-12-22T01:55:54.595Z,4.13
2022-12-22T01:58:32.336Z,4.65
2022-12-22T02:00:59.545Z,5.03
2022-12-22T02:03:29.486Z,4.70
2022-12-22T02:06:11.712Z,4.90
2022-12-22T02:08:42.854Z,4.90
2022-12-22T02:11:19.363Z,4.30
2022-12-22T02:14:08.493Z,4.55
2022-12-22T02:16:47.080Z,4.00
2022-12-22T02:19:33.412Z,4.10
2022-12-22T02:22:09.343Z,4.30
2022-12-22T02:24:42.078Z,4.40
2022-12-22T02:27:10.534Z,4.50
2022-12-22T02:29:46.703Z,4.88
2022-12-22T02:32:14.314Z,5.07
2022-12-22T02:34:41.864Z,5.10
2022-12-22T02:37:39.533Z,5.47
2022-12-22T02:40:35.715Z,5.38
2022-12-22T02:43:42.709Z,5.13
2022-12-22T02:46:15.009Z,5.03
2022-12-22T02:48:57.242Z,4.95
2022-12-22T02:51:28.622Z,5.10
2022-12-22T02:53:58.084Z,5.53
2022-12-22T02:56:25.977Z,4.93
2022-12-22T02:58:53.798Z,5.10
2022-12-22T03:03:58.291Z,4.75
2022-12-22T03:06:25.932Z,3.90
2022-12-22T03:08:53.010Z,4.30
2022-12-22T03:11:23.570Z,4.30
2022-12-22T03:13:50.860Z,4.38
2022-12-22T03:16:18.362Z,4.13
2022-12-22T03:18:45.863Z,4.80
2022-12-22T03:21:13.346Z,4.80
2022-12-22T03:23:40.803Z,4.28
2022-12-22T03:26:08.537Z,5.05
2022-12-22T03:28:35.673Z,5.57
2022-12-22T03:31:05.809Z,6.40
2022-12-22T03:33:33.618Z,4.80
2022-12-22T03:36:01.411Z,5.03
2022-12-22T03:38:30.761Z,5.15
2022-12-22T03:40:58.687Z,5.20
2022-12-22T03:43:30.592Z,4.63
2022-12-22T03:45:58.187Z,5.13
2022-12-22T03:48:25.741Z,5.45
2022-12-22T03:50:53.153Z,5.15
2022-12-22T03:53:20.224Z,5.88
2022-12-22T03:55:47.891Z,5.80
2022-12-22T03:58:14.958Z,6.75
2022-12-22T04:00:42.423Z,6.88
2022-12-22T04:03:09.795Z,7.63
2022-12-22T04:05:39.946Z,6.30
2022-12-22T04:08:07.174Z,7.57
2022-12-22T04:10:37.243Z,6.68
2022-12-22T04:13:04.305Z,8.27
2022-12-22T04:15:34.112Z,8.70
2022-12-22T04:18:01.753Z,7.85
2022-12-22T04:20:29.191Z,8.73
2022-12-22T04:22:56.899Z,10.30
2022-12-22T04:25:25.543Z,9.38
2022-12-22T04:27:57.242Z,9.80
2022-12-22T04:30:24.741Z,9.40
2022-12-22T04:32:54.447Z,8.43
2022-12-22T04:35:21.807Z,10.43
2022-12-22T04:37:48.919Z,8.68
2022-12-22T04:40:18.874Z,8.48
2022-12-22T04:42:48.205Z,9.45
2022-12-22T04:45:15.790Z,9.23
2022-12-22T04:47:47.484Z,9.32
2022-12-22T04:50:14.873Z,8.30
2022-12-22T04:52:42.141Z,9.65
2022-12-22T04:55:12.245Z,10.35
2022-12-22T04:57:41.000Z,10.40
2022-12-22T05:00:09.725Z,9.88
2022-12-22T05:02:37.335Z,10.75
2022-12-22T05:05:09.986Z,8.27
2022-12-22T05:07:37.280Z,8.30
2022-12-22T05:10:08.067Z,8.68
2022-12-22T05:12:35.190Z,10.73
2022-12-22T05:15:05.200Z,9.57
2022-12-22T05:17:35.231Z,11.07
2022-12-22T05:20:02.794Z,10.32
2022-12-22T05:22:29.843Z,9.32
2022-12-22T05:24:57.578Z,10.52
2022-12-22T05:27:24.652Z,9.63
2022-12-22T05:29:52.019Z,8.63
2022-12-22T05:32:21.796Z,9.65
2022-12-22T05:34:51.652Z,9.25
2022-12-22T05:37:18.683Z,10.02
2022-12-22T05:39:46.345Z,8.90
2022-12-22T05:42:13.359Z,9.32
2022-12-22T05:44:40.715Z,11.30
2022-12-22T05:47:08.138Z,11.52
2022-12-22T05:49:35.536Z,11.77
2022-12-22T05:52:02.559Z,11.25
2022-12-22T05:54:30.078Z,12.75
2022-12-22T05:56:57.136Z,13.27
2022-12-22T05:59:24.471Z,10.20
2022-12-22T06:01:54.137Z,11.15
2022-12-22T06:04:21.582Z,10.93
2022-12-22T06:06:48.746Z,10.15
2022-12-22T06:09:16.307Z,11.32
2022-12-22T06:11:47.786Z,11.90
2022-12-22T06:14:15.162Z,10.57
2022-12-22T06:16:44.564Z,9.55
2022-12-22T06:19:11.907Z,10.20
2022-12-22T06:21:39.021Z,9.82
2022-12-22T06:24:07.185Z,9.82
2022-12-22T06:26:34.278Z,8.32
2022-12-22T06:29:01.629Z,10.60
2022-12-22T06:31:28.937Z,9.48
2022-12-22T06:33:58.754Z,10.43
2022-12-22T06:36:25.838Z,10.73
2022-12-22T06:38:55.723Z,12.48
2022-12-22T06:41:22.863Z,11.88
2022-12-22T06:43:50.215Z,11.82
2022-12-22T06:46:17.594Z,12.30
2022-12-22T06:48:45.098Z,13.27
2022-12-22T06:51:14.715Z,12.18
2022-12-22T06:53:45.021Z,11.82
2022-12-22T06:56:12.090Z,12.35
2022-12-22T06:58:44.139Z,11.43
2022-12-22T07:01:12.150Z,12.55
2022-12-22T07:03:39.820Z,16.67
2022-12-22T07:06:07.340Z,17.67
2022-12-22T07:08:37.668Z,19.02
2022-12-22T07:11:05.726Z,19.10
2022-12-22T07:13:35.627Z,20.85
2022-12-22T07:16:07.737Z,19.08
2022-12-22T07:18:40.215Z,17.70
2022-12-22T07:21:11.690Z,16.00
2022-12-22T07:23:41.761Z,15.00
2022-12-22T07:26:12.533Z,11.45
2022-12-22T07:28:41.814Z,13.10
2022-12-22T07:31:10.291Z,13.45
2022-12-22T07:33:38.452Z,9.70
2022-12-22T07:36:08.552Z,8.85
2022-12-22T07:38:39.077Z,9.95
2022-12-22T07:41:10.195Z,12.32
2022-12-22T07:43:37.871Z,11.32
2022-12-22T07:46:08.663Z,10.00
2022-12-22T07:48:36.274Z,9.57
2022-12-22T07:51:05.752Z,9.32
2022-12-22T07:53:35.442Z,10.45
2022-12-22T07:56:04.711Z,9.40
2022-12-22T07:58:34.354Z,9.10
2022-12-22T08:01:03.950Z,10.15
2022-12-22T08:03:31.440Z,10.25
2022-12-22T08:05:58.480Z,10.05
2022-12-22T08:08:25.851Z,8.18
2022-12-22T08:10:53.245Z,8.02
2022-12-22T08:13:20.631Z,7.18
2022-12-22T08:15:47.847Z,7.93
2022-12-22T08:18:17.819Z,7.70
2022-12-22T08:20:54.199Z,10.35
2022-12-22T08:23:21.806Z,10.40
2022-12-22T08:26:10.562Z,11.25
2022-12-22T08:28:44.626Z,10.73
2022-12-22T08:31:11.945Z,10.23
2022-12-22T08:33:42.044Z,7.88
2022-12-22T08:36:10.259Z,7.85
2022-12-22T08:38:41.211Z,7.20
2022-12-22T08:41:16.347Z,6.97
2022-12-22T08:43:46.181Z,7.32
2022-12-22T08:46:17.952Z,6.93
2022-12-22T08:48:47.800Z,7.47
2022-12-22T08:51:14.945Z,7.80
2022-12-22T08:56:30.700Z,6.78
2022-12-22T08:58:58.235Z,6.40
2022-12-22T09:01:25.357Z,6.13
2022-12-22T09:03:54.197Z,6.13
2022-12-22T09:06:27.292Z,6.68
2022-12-22T09:09:03.682Z,5.32
2022-12-22T09:11:31.391Z,6.88
2022-12-22T09:14:01.082Z,6.55
2022-12-22T09:16:31.087Z,5.22
2022-12-22T09:18:58.927Z,5.03
2022-12-22T09:21:29.190Z,5.13
2022-12-22T09:23:57.301Z,6.30
2022-12-22T09:26:26.746Z,5.57
2022-12-22T09:28:55.777Z,6.45
2022-12-22T09:31:26.753Z,7.07
2022-12-22T09:33:56.714Z,6.15
2022-12-22T09:36:29.837Z,5.68
2022-12-22T09:38:57.634Z,6.10
2022-12-22T09:41:30.402Z,6.00
2022-12-22T09:44:02.217Z,6.10
2022-12-22T09:46:32.856Z,5.40
2022-12-22T09:49:04.793Z,5.18
2022-12-22T09:51:34.363Z,7.28
2022-12-22T09:54:04.393Z,5.50
2022-12-22T09:56:34.131Z,5.50
2022-12-22T09:59:01.584Z,5.32
2022-12-22T10:01:52.164Z,6.13
2022-12-22T10:04:31.344Z,6.32
2022-12-22T10:07:32.356Z,5.88
2022-12-22T10:10:24.150Z,5.20
2022-12-22T10:12:53.966Z,4.78
2022-12-22T10:15:22.160Z,4.03
2022-12-22T10:18:09.020Z,3.33
2022-12-22T10:20:37.119Z,3.30
2022-12-22T10:23:18.272Z,2.90
2022-12-22T10:28:59.710Z,4.22
2022-12-22T10:31:34.197Z,4.35
2022-12-22T10:34:13.839Z,4.20
2022-12-22T10:36:47.120Z,4.25
2022-12-22T10:39:25.112Z,3.83
2022-12-22T10:41:56.871Z,4.10
2022-12-22T10:44:30.524Z,3.78
2022-12-22T10:47:17.172Z,2.95
2022-12-22T10:49:47.279Z,3.50
2022-12-22T10:52:16.020Z,3.33
2022-12-22T10:54:44.753Z,3.45
2022-12-22T10:57:15.063Z,3.65
2022-12-22T11:00:01.152Z,4.13
2022-12-22T11:02:29.288Z,4.38
2022-12-22T11:05:16.948Z,4.43
2022-12-22T11:07:46.218Z,4.88
2022-12-22T11:10:49.500Z,5.93
2022-12-22T11:13:34.992Z,5.18
2022-12-22T11:16:32.756Z,5.65
2022-12-22T11:19:43.097Z,5.47
2022-12-22T11:22:28.643Z,5.57
2022-12-22T11:25:21.254Z,4.78
2022-12-22T11:28:09.556Z,4.88
2022-12-22T11:30:50.158Z,5.00
2022-12-22T11:33:35.377Z,5.13
2022-12-22T11:36:15.464Z,4.60
2022-12-22T11:38:54.603Z,5.07
2022-12-22T11:41:24.813Z,4.90
2022-12-22T11:43:59.010Z,4.75
2022-12-22T11:46:40.747Z,4.75
2022-12-22T11:49:29.580Z,5.22
2022-12-22T11:52:48.040Z,5.65
2022-12-22T11:55:25.151Z,5.55
2022-12-22T11:58:11.035Z,5.55
2022-12-22T12:01:14.130Z,4.93
2022-12-22T12:03:51.421Z,7.10
2022-12-22T12:06:27.726Z,4.88
2022-12-22T12:09:06.946Z,4.78
2022-12-22T12:11:49.193Z,4.53
2022-12-22T12:14:25.591Z,4.32
2022-12-22T12:16:59.438Z,4.07
2022-12-22T12:19:38.979Z,4.20
2022-12-22T12:22:14.633Z,3.85
2022-12-22T12:24:59.395Z,3.88
2022-12-22T12:27:52.747Z,3.97
2022-12-22T12:30:39.612Z,3.87
2022-12-22T12:33:19.452Z,3.65
2022-12-22T12:35:53.166Z,3.63
2022-12-22T12:39:05.575Z,3.80
2022-12-22T12:41:45.850Z,3.50
2022-12-22T12:44:18.881Z,3.33
2022-12-22T12:46:57.658Z,4.35
2022-12-22T12:49:37.080Z,4.10
2022-12-22T12:52:07.911Z,4.07
2022-12-22T12:54:41.354Z,4.05
2022-12-22T12:57:22.439Z,4.13
2022-12-22T12:59:51.582Z,4.18
2022-12-22T13:02:28.996Z,4.00
2022-12-22T13:05:01.278Z,4.13
2022-12-22T13:08:05.946Z,4.55
2022-12-22T13:10:53.406Z,4.93
2022-12-22T13:13:24.293Z,4.20
2022-12-22T13:16:01.146Z,6.05
2022-12-22T13:18:34.745Z,4.40
2022-12-22T13:21:51.734Z,4.05
2022-12-22T13:24:28.660Z,3.90
2022-12-22T13:27:03.495Z,3.80
2022-12-22T13:29:42.591Z,4.65
2022-12-22T13:32:34.368Z,4.65
2022-12-22T13:35:32.615Z,5.40
2022-12-22T13:38:03.758Z,5.22
2022-12-22T13:40:44.239Z,4.45
2022-12-22T13:43:16.418Z,4.13
2022-12-22T13:45:43.969Z,4.57
2022-12-22T13:48:44.513Z,5.10
2022-12-22T13:51:35.854Z,4.65
2022-12-22T13:54:10.915Z,4.53
2022-12-22T13:56:51.422Z,5.07
2022-12-22T13:59:34.501Z,5.35
2022-12-22T14:02:08.604Z,6.28
2022-12-22T14:04:38.252Z,5.70
2022-12-22T14:07:20.781Z,5.80
2022-12-22T14:09:56.672Z,6.35
2022-12-22T14:12:27.012Z,6.10
2022-12-22T14:14:58.666Z,5.28
2022-12-22T14:17:34.358Z,5.47
2022-12-22T14:22:43.151Z,5.30
2022-12-22T14:25:27.536Z,6.93
2022-12-22T14:27:58.911Z,6.32
2022-12-22T14:30:42.122Z,6.97
2022-12-22T14:33:28.869Z,6.72
2022-12-22T14:36:05.599Z,7.78
2022-12-22T14:38:49.566Z,9.02
2022-12-22T14:41:22.559Z,8.52
2022-12-22T14:43:50.193Z,7.53
2022-12-22T14:46:18.742Z,7.18
2022-12-22T14:48:47.215Z,8.18
2022-12-22T14:51:19.715Z,8.45
2022-12-22T14:54:00.626Z,9.52
2022-12-22T14:56:30.426Z,9.50
2022-12-22T14:59:21.891Z,8.80
2022-12-22T15:02:23.424Z,8.23
2022-12-22T15:05:07.491Z,8.20
2022-12-22T15:08:09.805Z,8.52
2022-12-22T15:10:41.330Z,8.85
2022-12-22T15:13:17.379Z,8.10
2022-12-22T15:15:44.759Z,8.38
2022-12-22T15:18:15.100Z,8.20
2022-12-22T15:20:42.767Z,7.95
2022-12-22T15:23:15.315Z,7.30
2022-12-22T15:25:45.281Z,7.22
2022-12-22T15:28:12.406Z,7.80
2022-12-22T15:30:40.248Z,7.78
2022-12-22T15:33:16.110Z,6.88
2022-12-22T15:35:44.732Z,7.20
2022-12-22T15:38:21.025Z,9.63
2022-12-22T15:40:54.394Z,7.68
2022-12-22T15:46:14.846Z,8.27
2022-12-22T15:48:45.006Z,7.20
2022-12-22T15:51:22.544Z,6.97
2022-12-22T15:53:50.478Z,6.97
2022-12-22T15:56:23.927Z,7.75
2022-12-22T15:58:54.792Z,6.75
2022-12-22T16:01:22.541Z,5.03
2022-12-22T16:03:49.688Z,5.72
2022-12-22T16:06:19.280Z,5.90
2022-12-22T16:08:52.221Z,5.68
2022-12-22T16:11:20.629Z,5.85
2022-12-22T16:13:51.268Z,7.10
2022-12-22T16:16:21.591Z,6.20
2022-12-22T16:18:48.897Z,6.63
2022-12-22T16:21:22.855Z,5.90
2022-12-22T16:26:20.811Z,6.28
2022-12-22T16:28:48.676Z,6.00
2022-12-22T16:31:20.337Z,5.68
2022-12-22T16:33:47.518Z,6.25
2022-12-22T16:36:15.291Z,7.13
2022-12-22T16:38:44.963Z,7.50
2022-12-22T16:41:24.425Z,6.93
2022-12-22T16:46:39.475Z,7.90
2022-12-22T16:49:09.518Z,7.60
2022-12-22T16:51:43.048Z,7.63
2022-12-22T16:54:13.887Z,8.02
2022-12-22T16:56:41.681Z,7.57
2022-12-22T16:59:09.304Z,8.25
2022-12-22T17:01:59.435Z,8.15
2022-12-22T17:04:31.731Z,8.77
2022-12-22T17:07:02.783Z,8.40
2022-12-22T17:09:53.897Z,8.32
2022-12-22T17:12:27.084Z,7.88
2022-12-22T17:14:57.110Z,9.80
2022-12-22T17:17:31.882Z,8.18
2022-12-22T17:20:01.394Z,7.53
2022-12-22T17:22:32.312Z,7.03
2022-12-22T17:25:05.377Z,7.10
2022-12-22T17:27:34.292Z,6.70
2022-12-22T17:30:03.565Z,6.40
2022-12-22T17:32:31.155Z,7.47
2022-12-22T17:35:00.813Z,7.28
2022-12-22T17:37:33.578Z,7.30
2022-12-22T17:40:02.028Z,6.93
2022-12-22T17:42:31.868Z,7.60
2022-12-22T17:45:01.487Z,6.93
2022-12-22T17:47:34.681Z,7.80
2022-12-22T17:50:07.235Z,7.30
2022-12-22T17:52:34.818Z,7.57
2022-12-22T17:55:01.940Z,6.90
2022-12-22T17:57:33.517Z,7.03
2022-12-22T18:00:03.779Z,6.18
2022-12-22T18:02:31.589Z,6.57
2022-12-22T18:04:59.119Z,5.80
2022-12-22T18:07:26.563Z,6.63
2022-12-22T18:09:59.595Z,5.68
2022-12-22T18:12:29.531Z,6.57
2022-12-22T18:14:56.979Z,7.22
2022-12-22T18:17:26.276Z,5.93
2022-12-22T18:19:57.858Z,6.22
2022-12-22T18:22:36.139Z,6.50
2022-12-22T18:25:05.937Z,8.50
2022-12-22T18:27:33.555Z,7.05
2022-12-22T18:30:00.665Z,7.22
2022-12-22T18:32:28.348Z,6.50
2022-12-22T18:34:55.915Z,7.10
2022-12-22T18:37:23.335Z,6.18
2022-12-22T18:39:50.598Z,5.80
2022-12-22T18:42:23.458Z,4.20
2022-12-22T18:44:51.579Z,4.25
2022-12-22T18:47:21.559Z,4.05
2022-12-22T18:49:48.696Z,6.47
2022-12-22T18:52:22.227Z,4.43
2022-12-22T18:54:49.666Z,3.92
2022-12-22T18:57:19.810Z,4.10
2022-12-22T18:59:47.111Z,4.03
2022-12-22T19:02:29.600Z,4.95
2022-12-22T19:04:59.572Z,4.68
2022-12-22T19:07:27.262Z,6.07
2022-12-22T19:09:54.482Z,5.78
2022-12-22T19:12:23.096Z,5.13
2022-12-22T19:14:54.207Z,4.40
2022-12-22T19:17:25.504Z,4.20
2022-12-22T19:19:56.016Z,4.03
2022-12-22T19:22:27.507Z,4.07
2022-12-22T19:25:02.482Z,5.25
2022-12-22T19:27:32.377Z,4.13
2022-12-22T19:30:04.169Z,4.07
2022-12-22T19:32:40.337Z,3.70
2022-12-22T19:35:15.944Z,4.20
2022-12-22T19:37:48.050Z,4.68
2022-12-22T19:40:17.879Z,4.78
2022-12-22T19:42:47.818Z,4.63
2022-12-22T19:45:33.509Z,4.95
2022-12-22T19:48:02.828Z,5.15
2022-12-22T19:50:32.634Z,5.55
2022-12-22T19:53:13.425Z,5.32
2022-12-22T19:55:45.928Z,4.90
2022-12-22T19:58:18.569Z,5.50
2022-12-22T20:00:49.952Z,4.90
2022-12-22T20:03:26.032Z,5.32
2022-12-22T20:05:53.480Z,5.25
2022-12-22T20:08:23.516Z,5.80
2022-12-22T20:10:58.372Z,5.20
2022-12-22T20:13:32.638Z,5.97
2022-12-22T20:15:59.978Z,5.82
2022-12-22T20:18:28.538Z,5.57
2022-12-22T20:21:14.927Z,6.35
2022-12-22T20:23:44.883Z,5.57
2022-12-22T20:26:20.265Z,5.03
2022-12-22T20:28:48.119Z,4.00
2022-12-22T20:31:16.963Z,4.55
2022-12-22T20:33:45.096Z,4.20
2022-12-22T20:36:28.285Z,3.97
2022-12-22T20:38:57.107Z,4.45
2022-12-22T20:41:25.511Z,4.00
2022-12-22T20:43:52.913Z,9.13
2022-12-22T20:46:31.283Z,4.60
2022-12-22T20:49:02.241Z,3.72
2022-12-22T20:51:32.197Z,3.95
2022-12-22T20:54:02.848Z,3.90
2022-12-22T20:56:32.556Z,3.90
2022-12-22T20:59:06.979Z,3.85
2022-12-22T21:01:35.950Z,4.22
2022-12-22T21:04:08.172Z,4.00
2022-12-22T21:06:44.526Z,4.03
2022-12-22T21:09:15.155Z,3.70
2022-12-22T21:11:42.312Z,4.07
2022-12-22T21:14:10.463Z,4.03
2022-12-22T21:16:49.050Z,3.75
2022-12-22T21:19:21.211Z,4.28
2022-12-22T21:21:51.540Z,4.47
2022-12-22T21:24:22.972Z,4.38
2022-12-22T21:26:53.757Z,3.83
2022-12-22T21:29:24.633Z,3.80
2022-12-22T21:31:56.787Z,3.10
2022-12-22T21:37:18.607Z,4.20
2022-12-22T21:39:52.257Z,3.75
2022-12-22T21:42:24.028Z,3.83
2022-12-22T21:44:54.004Z,3.70
2022-12-22T21:47:21.276Z,3.28
2022-12-22T21:49:53.706Z,2.78
2022-12-22T21:52:28.539Z,2.80
2022-12-22T21:54:58.374Z,2.30
2022-12-22T21:57:27.926Z,2.50
2022-12-22T21:59:55.455Z,2.53
2022-12-22T22:02:25.558Z,3.00
2022-12-22T22:04:58.902Z,3.58
2022-12-22T22:07:28.346Z,3.60
2022-12-22T22:09:57.223Z,3.72
2022-12-22T22:12:28.195Z,3.70
2022-12-22T22:14:55.995Z,3.88
2022-12-22T22:17:23.266Z,4.15
2022-12-22T22:19:53.279Z,4.30
2022-12-22T22:22:22.632Z,3.95
2022-12-22T22:24:59.962Z,4.22
2022-12-22T22:27:28.655Z,4.40
2022-12-22T22:29:56.015Z,4.00
2022-12-22T22:32:23.320Z,3.63
2022-12-22T22:34:52.326Z,3.72
2022-12-22T22:37:19.631Z,3.38
2022-12-22T22:39:47.938Z,3.97
2022-12-22T22:42:15.242Z,4.10
2022-12-22T22:44:42.774Z,4.30
2022-12-22T22:47:09.973Z,4.53
2022-12-22T22:49:40.186Z,6.97
2022-12-22T22:52:07.222Z,8.98
2022-12-22T22:54:34.882Z,7.43
2022-12-22T22:57:02.138Z,6.35
2022-12-22T22:59:33.836Z,6.63
2022-12-22T23:02:01.146Z,6.10
2022-12-22T23:04:29.047Z,6.47
2022-12-22T23:06:59.076Z,5.95
2022-12-22T23:09:29.314Z,5.63
2022-12-22T23:12:14.848Z,6.30
2022-12-22T23:17:25.996Z,5.30
2022-12-22T23:19:57.433Z,5.22
2022-12-22T23:22:24.689Z,6.40
2022-12-22T23:24:52.213Z,5.32
2022-12-22T23:27:19.560Z,6.18
2022-12-22T23:29:46.946Z,7.40
2022-12-22T23:32:14.097Z,8.77
2022-12-22T23:34:41.766Z,8.75
2022-12-22T23:37:13.384Z,8.52
2022-12-22T23:39:48.549Z,9.25
2022-12-22T23:42:15.720Z,9.98
2022-12-22T23:44:45.311Z,10.63
2022-12-22T23:47:17.006Z,10.05
2022-12-22T23:49:44.421Z,10.02
2022-12-22T23:52:11.464Z,14.55
2022-12-22T23:54:41.204Z,12.02
2022-12-22T23:57:12.881Z,12.25
2022-12-22T23:59:42.799Z,11.80
